• Join FlightAware (Why Join?)
  • Login
  • US Flag 
Rudolph Flight #1: Arrived! 
11:34AM EST


 

Airport Tracker/Info


-or-


 

Live Flight TrackerFlight Track Log ✈ AAY846 ✈ 21-Mar-2014 ✈ KPIE - KPIA

Flight Track Log - Related Links

Times and Time Zones

All times are in EDT time to prevent confusion due to time zone crossing. See the AAY846 flight status page for this flight to view local times or setup timezone preferences in your user account.

Time Position Orientation Groundspeed Altitude Reporting Facility
EDT Latitude Longitude Course Direction KTS MPH feet Rate Location/Type
08:42AM 27.9333 -82.7000 24° Northeast 171 197 1,000  Level Tampa TRACON
08:44AM 28.0000 -82.6667 24° Northeast 276 318 3,200 1,380 Climbing Tampa TRACON
08:45AM 28.0667 -82.6500 12° North 269 310 4,000 1,560 Climbing Tampa TRACON
08:46AM 28.1167 -82.7167 310° West 274 315 6,300 2,280 Climbing Tampa TRACON
08:47AM 28.1333 -82.8000 283° West 276 318 8,900 1,740 Climbing Tampa TRACON
08:49AM 28.3294 -82.8361 351° North 305 351 12,100 900 Climbing Jacksonville Center
08:50AM 28.4358 -82.8289 North 351 404 12,000 540 Descending Jacksonville Center
08:51AM 28.5422 -82.7933 16° North 378 435 13,200 1,800 Climbing Jacksonville Center
08:52AM 28.6508 -82.7625 14° North 390 449 15,700 2,400 Climbing Jacksonville Center
08:53AM 28.7675 -82.7575 North 400 460 18,000 2,040 Climbing Jacksonville Center
08:54AM 28.8803 -82.7622 358° North 405 466 19,800 1,800 Climbing Jacksonville Center
08:55AM 28.9742 -82.8333 326° Northwest 390 449 21,600 1,620 Climbing Jacksonville Center
08:56AM 29.0767 -82.9069 328° Northwest 407 468 23,100 1,920 Climbing Jacksonville Center
08:57AM 29.1767 -82.9758 329° Northwest 418 481 25,500 1,440 Climbing Jacksonville Center
08:58AM 29.2769 -83.0403 331° Northwest 423 487 26,000 540 Climbing Jacksonville Center
08:59AM 29.3728 -83.1094 328° Northwest 418 481 26,600 900 Climbing Jacksonville Center
09:00AM 29.4750 -83.1622 336° Northwest 405 466 27,900 600 Climbing Jacksonville Center
09:01AM 29.5772 -83.2172 335° Northwest 405 466 27,900 120 Level Jacksonville Center
09:02AM 29.6772 -83.2678 336° Northwest 400 460 28,200 1,080 Climbing Jacksonville Center
09:03AM 29.7753 -83.3233 334° Northwest 400 460 30,100 1,800 Climbing Jacksonville Center
09:04AM 29.8522 -83.3572 339° North 388 447 31,800 900 Climbing Jacksonville Center
09:05AM 29.9522 -83.4103 335° Northwest 373 429 32,000  Climbing Jacksonville Center
09:06AM 30.0461 -83.4589 336° Northwest 361 415 31,900  Descending Jacksonville Center
09:07AM 30.1397 -83.5050 337° Northwest 361 415 32,000 420 Climbing Jacksonville Center
09:08AM 30.2314 -83.5536 335° Northwest 361 415 32,800 900 Climbing Jacksonville Center
09:09AM 30.3250 -83.5978 338° Northwest 361 415 33,900 540 Climbing Jacksonville Center
09:10AM 30.4064 -83.6464 333° Northwest 341 392 33,900  Level Jacksonville Center
09:11AM 30.4958 -83.6858 339° North 341 392 33,900  Level Jacksonville Center
09:12AM 30.5914 -83.7372 335° Northwest 341 392 34,000  Climbing Jacksonville Center
09:13AM 30.6831 -83.7839 336° Northwest 341 392 34,000  Level Jacksonville Center
09:14AM 30.7725 -83.8331 335° Northwest 346 398 34,000  Level Jacksonville Center
09:15AM 30.8619 -83.8728 339° North 346 398 34,000  Level Jacksonville Center
09:16AM 30.9492 -83.9294 331° Northwest 340 391 34,000  Level Jacksonville Center
09:17AM 31.0408 -83.9692 340° North 340 391 34,000  Level Jacksonville Center
09:18AM 31.1300 -84.0186 335° Northwest 340 391 34,000  Level Jacksonville Center
09:19AM 31.2583 -84.0850 336° Northwest 349 402 34,000  Level Atlanta Center
09:20AM 31.3500 -84.1336 336° Northwest 354 407 34,000  Level Atlanta Center
09:21AM 31.4378 -84.1800 336° Northwest 354 407 34,000  Level Atlanta Center
09:22AM 31.5272 -84.2314 334° Northwest 354 407 34,000  Level Atlanta Center
09:23AM 31.6169 -84.2753 337° Northwest 354 407 34,000  Level Atlanta Center
09:24AM 31.7086 -84.3244 335° Northwest 354 407 34,000  Level Atlanta Center
09:25AM 31.7983 -84.3711 336° Northwest 354 407 34,000  Level Atlanta Center
09:26AM 31.8900 -84.4228 334° Northwest 354 407 34,000  Level Atlanta Center
09:27AM 31.9817 -84.4675 338° Northwest 359 413 34,000  Level Atlanta Center
09:28AM 32.0692 -84.5192 333° Northwest 353 406 34,000  Level Atlanta Center
09:29AM 32.1608 -84.5639 338° Northwest 353 406 34,000  Level Atlanta Center
09:30AM 32.2503 -84.6161 334° Northwest 353 406 34,000  Level Atlanta Center
09:31AM 32.3442 -84.6633 337° Northwest 359 413 34,000  Level Atlanta Center
09:32AM 32.4314 -84.7156 333° Northwest 359 413 34,000  Level Atlanta Center
09:33AM 32.5333 -84.7681 337° Northwest 359 413 34,000  Level Atlanta Center
09:34AM 32.6208 -84.8206 333° Northwest 359 413 34,000  Level Atlanta Center
09:35AM 32.7167 -84.8608 341° North 359 413 34,000  Level Atlanta Center
09:36AM 32.7956 -84.9211 327° Northwest 359 413 34,000  Level Atlanta Center
09:37AM 32.8869 -84.9664 337° Northwest 370 426 34,000  Level Atlanta Center
09:38AM 32.9764 -85.0169 335° Northwest 351 404 34,000  Level Atlanta Center
09:39AM 33.0678 -85.0625 337° Northwest 346 398 34,000  Level Atlanta Center
09:40AM 33.1592 -85.1183 333° Northwest 351 404 34,000  Level Atlanta Center
09:41AM 33.2569 -85.1692 337° Northwest 351 404 34,000  Level Atlanta Center
09:42AM 33.3461 -85.2200 335° Northwest 356 410 34,000  Level Atlanta Center
09:43AM 33.4394 -85.2686 337° Northwest 356 410 34,000  Level Atlanta Center
09:44AM 33.5289 -85.3222 333° Northwest 356 410 34,000  Level Atlanta Center
09:45AM 33.6200 -85.3683 337° Northwest 351 404 34,000  Level Atlanta Center
09:46AM 33.7092 -85.4197 334° Northwest 351 404 34,000  Level Atlanta Center
09:47AM 33.8006 -85.4661 337° Northwest 356 410 34,000  Level Atlanta Center
09:48AM 33.8836 -85.5128 335° Northwest 356 410 34,000  Level Atlanta Center
09:49AM 33.9728 -85.5642 334° Northwest 351 404 34,000  Level Atlanta Center
09:50AM 34.0639 -85.6111 337° Northwest 357 411 34,000  Level Atlanta Center
09:51AM 34.1550 -85.6656 334° Northwest 357 411 34,000  Level Atlanta Center
09:52AM 34.2461 -85.7125 337° Northwest 357 411 34,000  Level Atlanta Center
09:53AM 34.3311 -85.7669 332° Northwest 351 404 34,000  Level Atlanta Center
09:54AM 34.4119 -85.8089 337° Northwest 351 404 34,000  Level Atlanta Center
09:55AM 34.5175 -85.8664 336° Northwest 346 398 34,000 -60 Level Atlanta Center
09:56AM 34.6106 -85.9164 336° Northwest 346 398 33,900  Descending Atlanta Center
09:57AM 34.6975 -85.9714 333° Northwest 351 404 34,000  Climbing Atlanta Center
09:58AM 34.7928 -86.0192 338° Northwest 356 410 34,000  Level Atlanta Center
09:59AM 34.8814 -86.0744 333° Northwest 356 410 34,000  Level Atlanta Center
10:00AM 34.9703 -86.1275 334° Northwest 356 410 34,000  Level Atlanta Center
10:01AM 35.0614 -86.1778 336° Northwest 356 410 34,000  Level Atlanta Center
10:04AM 35.2558 -86.2906 335° Northwest 360 414 34,000  Level Memphis Center
10:05AM 35.3478 -86.3428 335° Northwest 360 414 34,000  Level Memphis Center
10:06AM 35.4381 -86.3958 334° Northwest 358 412 34,000  Level Memphis Center
10:07AM 35.5453 -86.4575 335° Northwest 360 414 34,000  Level Memphis Center
10:08AM 35.6350 -86.5108 334° Northwest 360 414 34,000  Level Memphis Center
10:09AM 35.7261 -86.5658 334° Northwest 357 411 34,000  Level Memphis Center
10:10AM 35.8186 -86.6183 335° Northwest 363 418 34,000  Level Memphis Center
10:11AM 35.9094 -86.6722 334° Northwest 360 414 34,000  Level Memphis Center
10:12AM 36.0014 -86.7247 335° Northwest 360 414 34,000  Level Memphis Center
10:13AM 36.0919 -86.7794 334° Northwest 360 414 34,000  Level Memphis Center
10:14AM 36.1836 -86.8328 335° Northwest 360 414 34,000  Level Memphis Center
10:15AM 36.2875 -86.8986 333° Northwest 358 412 34,000  Level Memphis Center
10:16AM 36.3694 -86.9475 334° Northwest 357 411 34,000  Level Memphis Center
10:17AM 36.4625 -87.0322 324° Northwest 347 399 34,000  Level Memphis Center
10:18AM 36.5419 -87.1081 323° Northwest 350 403 34,000  Level Memphis Center
10:19AM 36.6322 -87.1653 333° Northwest 355 409 34,000  Level Memphis Center
10:20AM 36.7219 -87.2236 332° Northwest 360 414 34,000  Level Memphis Center
10:21AM 36.8164 -87.2736 337° Northwest 360 414 34,000  Level Memphis Center
10:22AM 36.9069 -87.3328 332° Northwest 363 418 34,000  Level Memphis Center
10:23AM 37.0033 -87.3839 337° Northwest 368 423 34,000  Level Memphis Center
10:24AM 37.1103 -87.4519 333° Northwest 368 423 34,000  Level Memphis Center
10:25AM 37.1711 -87.4872 335° Northwest 365 420 34,000  Level Indianapolis Center
10:26AM 37.2664 -87.5419 335° Northwest 366 421 34,000  Level Indianapolis Center
10:27AM 37.3575 -87.6014 333° Northwest 366 421 34,000  Level Indianapolis Center
10:28AM 37.4536 -87.6536 337° Northwest 369 425 34,000  Level Indianapolis Center
10:29AM 37.5442 -87.7131 333° Northwest 367 422 34,000  Level Indianapolis Center
10:30AM 37.6544 -87.7753 336° Northwest 367 422 34,000  Level Indianapolis Center
10:31AM 37.7469 -87.8333 334° Northwest 367 422 34,000  Level Indianapolis Center
10:32AM 37.8319 -87.8825 335° Northwest 367 422 34,000  Level Indianapolis Center
10:33AM 37.9222 -87.9408 333° Northwest 364 419 34,000  Level Indianapolis Center
10:34AM 38.0342 -88.0064 335° Northwest 364 419 34,000  Level Indianapolis Center
10:36AM 38.1250 -88.0661 333° Northwest 364 419 34,000  Level Indianapolis Center
10:37AM 38.2192 -88.1211 335° Northwest 365 420 34,000  Level Indianapolis Center
10:38AM 38.3086 -88.1808 332° Northwest 365 420 34,000  Level Indianapolis Center
10:39AM 38.4033 -88.2336 336° Northwest 365 420 34,000  Level Indianapolis Center
10:40AM 38.4914 -88.2942 332° Northwest 364 419 34,000  Level Indianapolis Center
10:41AM 38.5856 -88.3469 336° Northwest 364 419 34,000  Level Indianapolis Center
10:42AM 38.6739 -88.4083 332° Northwest 364 419 34,000  Level Indianapolis Center
10:43AM 38.7856 -88.4725 336° Northwest 363 418 34,000 -480 Level Indianapolis Center
10:44AM 38.8736 -88.5350 331° Northwest 363 418 33,100 -960 Descending Indianapolis Center
10:45AM 38.9678 -88.5872 337° Northwest 363 418 32,100 -1,020 Descending Indianapolis Center
10:46AM 39.0572 -88.6519 331° Northwest 364 419 31,100 -1,020 Descending Indianapolis Center
10:47AM 39.1561 -88.7058 337° Northwest 375 432 30,000 -1,020 Descending Indianapolis Center
10:48AM 39.2475 -88.7742 330° Northwest 379 436 29,100 -1,140 Descending Indianapolis Center
10:49AM 39.3450 -88.8294 336° Northwest 379 436 27,700 -1,860 Descending Indianapolis Center
10:50AM 39.4611 -88.9122 331° Northwest 394 453 25,300 -2,160 Descending Indianapolis Center
10:51AM 39.5639 -88.9703 336° Northwest 399 459 23,300 -1,860 Descending Indianapolis Center
10:52AM 39.6444 -89.0200 335° Northwest 382 440 21,600 -1,800 Descending Chicago Center
10:53AM 39.7289 -89.0811 331° Northwest 353 406 19,700 -1,740 Descending Chicago Center
10:54AM 39.8325 -89.1461 334° Northwest 346 398 18,100 -1,380 Descending Chicago Center
10:55AM 39.9158 -89.2014 333° Northwest 339 390 16,900 -1,200 Descending Chicago Center
10:56AM 39.9997 -89.2519 335° Northwest 335 386 15,700 -1,320 Descending Chicago Center
10:57AM 40.0803 -89.3106 331° Northwest 333 383 14,200 -1,560 Descending Chicago Center
10:58AM 40.1606 -89.3608 334° Northwest 325 374 12,500 -1,680 Descending Chicago Center
10:59AM 40.2300 -89.4275 324° Northwest 315 362 10,800 -1,380 Descending Chicago Center
11:00AM 40.2908 -89.4967 319° Northwest 297 342 9,700 -1,260 Descending Chicago Center
11:01AM 40.3619 -89.5667 323° Northwest 274 315 8,200 -1,560 Descending Chicago Center
11:02AM 40.4206 -89.6294 321° Northwest 271 312 6,500 -1,380 Descending Chicago Center
11:03AM 40.4675 -89.6894 316° Northwest 252 290 5,400 -1,440 Descending Chicago Center
11:04AM 40.5100 -89.7508 312° West 234 269 3,600 -1,440 Descending Chicago Center
11:05AM 40.5556 -89.7944 324° Northwest 218 251 2,500 -660 Descending Chicago Center
11:06AM 40.5964 -89.7542 37° Northeast 198 228 2,300 -540 Descending Chicago Center
11:07AM 40.6289 -89.7203 38° Northeast 169 194 1,400 -840 Descending Chicago Center
11:08AM 40.6586 -89.6878 40° Northeast 150 173 700 -720 Descending Chicago Center